sensor_id;sensor_type;location;lat;lon;timestamp;temperature;humidity
23291;DHT22;11814;44.686;10.842;2023-05-10T00:01:23;18.00;99.90
23291;DHT22;11814;44.686;10.842;2023-05-10T00:03:49;17.90;99.90
23291;DHT22;11814;44.686;10.842;2023-05-10T00:06:15;17.80;99.90
23291;DHT22;11814;44.686;10.842;2023-05-10T00:08:41;17.60;99.90
23291;DHT22;11814;44.686;10.842;2023-05-10T00:11:06;17.50;99.90
23291;DHT22;11814;44.686;10.842;2023-05-10T00:13:32;17.40;99.90
23291;DHT22;11814;44.686;10.842;2023-05-10T00:15:58;17.30;99.90
23291;DHT22;11814;44.686;10.842;2023-05-10T00:18:24;17.20;99.90
23291;DHT22;11814;44.686;10.842;2023-05-10T00:20:49;17.10;99.90
23291;DHT22;11814;44.686;10.842;2023-05-10T00:23:15;17.00;99.90
23291;DHT22;11814;44.686;10.842;2023-05-10T00:25:41;16.90;99.90
23291;DHT22;11814;44.686;10.842;2023-05-10T00:28:06;16.90;99.90
23291;DHT22;11814;44.686;10.842;2023-05-10T00:30:32;16.70;99.90
23291;DHT22;11814;44.686;10.842;2023-05-10T00:32:58;16.70;99.90
23291;DHT22;11814;44.686;10.842;2023-05-10T00:35:24;16.70;99.90
23291;DHT22;11814;44.686;10.842;2023-05-10T00:37:49;16.70;99.90
23291;DHT22;11814;44.686;10.842;2023-05-10T00:40:15;16.60;99.90
23291;DHT22;11814;44.686;10.842;2023-05-10T00:42:41;16.60;99.90
23291;DHT22;11814;44.686;10.842;2023-05-10T00:45:07;16.60;99.90
23291;DHT22;11814;44.686;10.842;2023-05-10T00:47:34;16.60;99.90
23291;DHT22;11814;44.686;10.842;2023-05-10T00:50:00;16.70;99.90
23291;DHT22;11814;44.686;10.842;2023-05-10T00:52:29;16.60;99.90
23291;DHT22;11814;44.686;10.842;2023-05-10T00:54:55;16.60;99.90
23291;DHT22;11814;44.686;10.842;2023-05-10T00:57:22;16.70;99.90
23291;DHT22;11814;44.686;10.842;2023-05-10T00:59:48;16.70;99.90
23291;DHT22;11814;44.686;10.842;2023-05-10T01:02:14;16.70;99.90
23291;DHT22;11814;44.686;10.842;2023-05-10T01:04:40;16.70;99.90
23291;DHT22;11814;44.686;10.842;2023-05-10T01:07:06;16.70;99.90
23291;DHT22;11814;44.686;10.842;2023-05-10T01:09:32;16.80;99.90
23291;DHT22;11814;44.686;10.842;2023-05-10T01:11:59;16.80;99.90
23291;DHT22;11814;44.686;10.842;2023-05-10T01:14:27;16.90;99.90
23291;DHT22;11814;44.686;10.842;2023-05-10T01:16:53;16.90;99.90
23291;DHT22;11814;44.686;10.842;2023-05-10T01:19:23;16.90;99.90
23291;DHT22;11814;44.686;10.842;2023-05-10T01:25:15;16.80;99.90
23291;DHT22;11814;44.686;10.842;2023-05-10T01:33:21;16.70;99.90
23291;DHT22;11814;44.686;10.842;2023-05-10T01:36:05;16.70;99.90
23291;DHT22;11814;44.686;10.842;2023-05-10T01:38:53;16.60;99.90
23291;DHT22;11814;44.686;10.842;2023-05-10T01:47:10;16.60;99.90
23291;DHT22;11814;44.686;10.842;2023-05-10T01:49:55;16.60;99.90
23291;DHT22;11814;44.686;10.842;2023-05-10T01:52:33;16.50;99.90
23291;DHT22;11814;44.686;10.842;2023-05-10T01:55:06;16.50;99.90
23291;DHT22;11814;44.686;10.842;2023-05-10T01:57:35;16.50;99.90
23291;DHT22;11814;44.686;10.842;2023-05-10T02:00:02;16.40;99.90
23291;DHT22;11814;44.686;10.842;2023-05-10T02:02:37;16.30;99.90
23291;DHT22;11814;44.686;10.842;2023-05-10T02:05:06;16.30;99.90
23291;DHT22;11814;44.686;10.842;2023-05-10T02:07:35;16.20;99.90
23291;DHT22;11814;44.686;10.842;2023-05-10T02:10:03;16.20;99.90
23291;DHT22;11814;44.686;10.842;2023-05-10T02:12:32;16.20;99.90
23291;DHT22;11814;44.686;10.842;2023-05-10T02:15:05;16.20;99.90
23291;DHT22;11814;44.686;10.842;2023-05-10T02:17:32;16.10;99.90
23291;DHT22;11814;44.686;10.842;2023-05-10T02:19:59;16.10;99.90
23291;DHT22;11814;44.686;10.842;2023-05-10T02:22:27;16.00;99.90
23291;DHT22;11814;44.686;10.842;2023-05-10T02:24:55;15.90;99.90
23291;DHT22;11814;44.686;10.842;2023-05-10T02:27:24;15.90;99.90
23291;DHT22;11814;44.686;10.842;2023-05-10T02:29:50;15.90;99.90
23291;DHT22;11814;44.686;10.842;2023-05-10T02:32:17;15.80;99.90
23291;DHT22;11814;44.686;10.842;2023-05-10T02:34:44;15.70;99.90
23291;DHT22;11814;44.686;10.842;2023-05-10T02:37:13;15.70;99.90
23291;DHT22;11814;44.686;10.842;2023-05-10T02:39:40;15.70;99.90
23291;DHT22;11814;44.686;10.842;2023-05-10T02:42:13;15.70;99.90
23291;DHT22;11814;44.686;10.842;2023-05-10T02:44:42;15.70;99.90
23291;DHT22;11814;44.686;10.842;2023-05-10T02:47:08;15.70;99.90
23291;DHT22;11814;44.686;10.842;2023-05-10T02:49:34;15.70;99.90
23291;DHT22;11814;44.686;10.842;2023-05-10T02:52:01;15.60;99.90
23291;DHT22;11814;44.686;10.842;2023-05-10T02:54:33;15.70;99.90
23291;DHT22;11814;44.686;10.842;2023-05-10T02:57:04;15.70;99.90
23291;DHT22;11814;44.686;10.842;2023-05-10T02:59:30;15.70;99.90
23291;DHT22;11814;44.686;10.842;2023-05-10T03:01:56;15.70;99.90
23291;DHT22;11814;44.686;10.842;2023-05-10T03:04:22;15.70;99.90
23291;DHT22;11814;44.686;10.842;2023-05-10T03:06:47;15.60;99.90
23291;DHT22;11814;44.686;10.842;2023-05-10T03:09:13;15.60;99.90
23291;DHT22;11814;44.686;10.842;2023-05-10T03:11:55;15.60;99.90
23291;DHT22;11814;44.686;10.842;2023-05-10T03:20:06;15.50;99.90
23291;DHT22;11814;44.686;10.842;2023-05-10T03:22:38;15.50;99.90
23291;DHT22;11814;44.686;10.842;2023-05-10T03:25:07;15.50;99.90
23291;DHT22;11814;44.686;10.842;2023-05-10T03:27:35;15.50;99.90
23291;DHT22;11814;44.686;10.842;2023-05-10T03:30:02;15.50;99.90
23291;DHT22;11814;44.686;10.842;2023-05-10T03:32:29;15.50;99.90
23291;DHT22;11814;44.686;10.842;2023-05-10T03:34:57;15.40;99.90
23291;DHT22;11814;44.686;10.842;2023-05-10T03:37:22;15.40;99.90
23291;DHT22;11814;44.686;10.842;2023-05-10T03:39:48;15.30;99.90
23291;DHT22;11814;44.686;10.842;2023-05-10T03:42:14;15.30;99.90
23291;DHT22;11814;44.686;10.842;2023-05-10T03:44:40;15.30;99.90
23291;DHT22;11814;44.686;10.842;2023-05-10T03:47:05;15.20;99.90
23291;DHT22;11814;44.686;10.842;2023-05-10T03:49:32;15.20;99.90
23291;DHT22;11814;44.686;10.842;2023-05-10T03:51:57;15.20;99.90
23291;DHT22;11814;44.686;10.842;2023-05-10T03:54:23;15.20;99.90
23291;DHT22;11814;44.686;10.842;2023-05-10T03:56:49;15.20;99.90
23291;DHT22;11814;44.686;10.842;2023-05-10T03:59:14;15.20;99.90
23291;DHT22;11814;44.686;10.842;2023-05-10T04:01:40;15.30;99.90
23291;DHT22;11814;44.686;10.842;2023-05-10T04:04:06;15.30;99.90
23291;DHT22;11814;44.686;10.842;2023-05-10T04:06:31;15.20;99.90
23291;DHT22;11814;44.686;10.842;2023-05-10T04:08:57;15.30;99.90
23291;DHT22;11814;44.686;10.842;2023-05-10T04:11:25;15.30;99.90
23291;DHT22;11814;44.686;10.842;2023-05-10T04:13:51;15.30;99.90
23291;DHT22;11814;44.686;10.842;2023-05-10T04:16:17;15.30;99.90
23291;DHT22;11814;44.686;10.842;2023-05-10T04:18:42;15.20;99.90
23291;DHT22;11814;44.686;10.842;2023-05-10T04:21:14;15.30;99.90
23291;DHT22;11814;44.686;10.842;2023-05-10T04:23:41;15.30;99.90
23291;DHT22;11814;44.686;10.842;2023-05-10T04:26:06;15.20;99.90
23291;DHT22;11814;44.686;10.842;2023-05-10T04:28:32;15.20;99.90
23291;DHT22;11814;44.686;10.842;2023-05-10T04:31:06;15.20;99.90
23291;DHT22;11814;44.686;10.842;2023-05-10T04:33:32;15.20;99.90
23291;DHT22;11814;44.686;10.842;2023-05-10T04:35:58;15.20;99.90
23291;DHT22;11814;44.686;10.842;2023-05-10T04:38:24;15.20;99.90
23291;DHT22;11814;44.686;10.842;2023-05-10T04:40:50;15.20;99.90
23291;DHT22;11814;44.686;10.842;2023-05-10T04:43:16;15.10;99.90
23291;DHT22;11814;44.686;10.842;2023-05-10T04:45:42;15.10;99.90
23291;DHT22;11814;44.686;10.842;2023-05-10T04:48:07;15.10;99.90
23291;DHT22;11814;44.686;10.842;2023-05-10T04:50:33;15.00;99.90
23291;DHT22;11814;44.686;10.842;2023-05-10T04:52:59;15.00;99.90
23291;DHT22;11814;44.686;10.842;2023-05-10T04:55:25;15.00;99.90
23291;DHT22;11814;44.686;10.842;2023-05-10T04:57:52;14.90;99.90
23291;DHT22;11814;44.686;10.842;2023-05-10T05:00:18;14.90;99.90
23291;DHT22;11814;44.686;10.842;2023-05-10T05:02:44;14.90;99.90
23291;DHT22;11814;44.686;10.842;2023-05-10T05:05:13;15.00;99.90
23291;DHT22;11814;44.686;10.842;2023-05-10T05:07:38;15.00;99.90
23291;DHT22;11814;44.686;10.842;2023-05-10T05:10:08;14.90;99.90
23291;DHT22;11814;44.686;10.842;2023-05-10T05:12:34;14.90;99.90
23291;DHT22;11814;44.686;10.842;2023-05-10T05:15:01;15.00;99.90
23291;DHT22;11814;44.686;10.842;2023-05-10T05:17:26;15.00;99.90
23291;DHT22;11814;44.686;10.842;2023-05-10T05:19:52;15.00;99.90
23291;DHT22;11814;44.686;10.842;2023-05-10T05:22:18;15.00;99.90
23291;DHT22;11814;44.686;10.842;2023-05-10T05:24:45;15.00;99.90
23291;DHT22;11814;44.686;10.842;2023-05-10T05:27:11;15.00;99.90
23291;DHT22;11814;44.686;10.842;2023-05-10T05:29:36;15.00;99.90
23291;DHT22;11814;44.686;10.842;2023-05-10T05:32:02;15.00;99.90
23291;DHT22;11814;44.686;10.842;2023-05-10T05:34:28;15.00;99.90
23291;DHT22;11814;44.686;10.842;2023-05-10T05:36:54;15.10;99.90
23291;DHT22;11814;44.686;10.842;2023-05-10T05:39:20;15.10;99.90
23291;DHT22;11814;44.686;10.842;2023-05-10T05:41:45;15.10;99.90
23291;DHT22;11814;44.686;10.842;2023-05-10T05:44:12;15.00;99.90
23291;DHT22;11814;44.686;10.842;2023-05-10T05:46:37;14.90;99.90
23291;DHT22;11814;44.686;10.842;2023-05-10T05:49:03;14.90;99.90
23291;DHT22;11814;44.686;10.842;2023-05-10T05:51:29;15.00;99.90
23291;DHT22;11814;44.686;10.842;2023-05-10T05:53:55;15.00;99.90
23291;DHT22;11814;44.686;10.842;2023-05-10T05:56:20;15.00;99.90
23291;DHT22;11814;44.686;10.842;2023-05-10T05:58:50;15.00;99.90
23291;DHT22;11814;44.686;10.842;2023-05-10T06:01:16;15.00;99.90
23291;DHT22;11814;44.686;10.842;2023-05-10T06:03:42;15.00;99.90
23291;DHT22;11814;44.686;10.842;2023-05-10T06:06:07;15.00;99.90
23291;DHT22;11814;44.686;10.842;2023-05-10T06:08:33;14.90;99.90
23291;DHT22;11814;44.686;10.842;2023-05-10T06:11:00;14.90;99.90
23291;DHT22;11814;44.686;10.842;2023-05-10T06:13:25;14.80;99.90
23291;DHT22;11814;44.686;10.842;2023-05-10T06:16:00;14.90;99.90
23291;DHT22;11814;44.686;10.842;2023-05-10T06:18:26;14.90;99.90
23291;DHT22;11814;44.686;10.842;2023-05-10T06:20:52;14.90;99.90
23291;DHT22;11814;44.686;10.842;2023-05-10T06:23:18;14.90;99.90
23291;DHT22;11814;44.686;10.842;2023-05-10T06:25:43;14.90;99.90
23291;DHT22;11814;44.686;10.842;2023-05-10T06:28:09;15.00;99.90
23291;DHT22;11814;44.686;10.842;2023-05-10T06:30:36;15.00;99.90
23291;DHT22;11814;44.686;10.842;2023-05-10T06:33:02;15.00;99.90
23291;DHT22;11814;44.686;10.842;2023-05-10T06:35:28;15.00;99.90
23291;DHT22;11814;44.686;10.842;2023-05-10T06:37:54;15.00;99.90
23291;DHT22;11814;44.686;10.842;2023-05-10T06:40:20;15.00;99.90
23291;DHT22;11814;44.686;10.842;2023-05-10T06:42:47;15.00;99.90
23291;DHT22;11814;44.686;10.842;2023-05-10T06:45:14;15.10;99.90
23291;DHT22;11814;44.686;10.842;2023-05-10T06:47:40;15.00;99.90
23291;DHT22;11814;44.686;10.842;2023-05-10T06:50:07;15.10;99.90
23291;DHT22;11814;44.686;10.842;2023-05-10T06:52:33;15.00;99.90
23291;DHT22;11814;44.686;10.842;2023-05-10T06:54:59;15.00;99.90
23291;DHT22;11814;44.686;10.842;2023-05-10T06:57:25;15.10;99.90
23291;DHT22;11814;44.686;10.842;2023-05-10T06:59:51;15.10;99.90
23291;DHT22;11814;44.686;10.842;2023-05-10T07:02:17;15.10;99.90
23291;DHT22;11814;44.686;10.842;2023-05-10T07:04:43;15.10;99.90
23291;DHT22;11814;44.686;10.842;2023-05-10T07:07:09;15.10;99.90
23291;DHT22;11814;44.686;10.842;2023-05-10T07:09:35;15.10;99.90
23291;DHT22;11814;44.686;10.842;2023-05-10T07:12:00;15.10;99.90
23291;DHT22;11814;44.686;10.842;2023-05-10T07:14:27;15.10;99.90
23291;DHT22;11814;44.686;10.842;2023-05-10T07:16:53;15.10;99.90
23291;DHT22;11814;44.686;10.842;2023-05-10T07:19:19;15.00;99.90
23291;DHT22;11814;44.686;10.842;2023-05-10T07:21:45;15.00;99.90
23291;DHT22;11814;44.686;10.842;2023-05-10T07:24:10;14.90;99.90
23291;DHT22;11814;44.686;10.842;2023-05-10T07:26:36;14.90;99.90
23291;DHT22;11814;44.686;10.842;2023-05-10T07:29:02;14.80;99.90
23291;DHT22;11814;44.686;10.842;2023-05-10T07:31:28;14.80;99.90
23291;DHT22;11814;44.686;10.842;2023-05-10T07:33:54;14.90;99.90
23291;DHT22;11814;44.686;10.842;2023-05-10T07:36:19;14.80;99.90
23291;DHT22;11814;44.686;10.842;2023-05-10T07:38:45;14.80;99.90
23291;DHT22;11814;44.686;10.842;2023-05-10T07:41:12;14.80;99.90
23291;DHT22;11814;44.686;10.842;2023-05-10T07:43:37;14.80;99.90
23291;DHT22;11814;44.686;10.842;2023-05-10T07:46:03;14.70;99.90
23291;DHT22;11814;44.686;10.842;2023-05-10T07:48:29;14.70;99.90
23291;DHT22;11814;44.686;10.842;2023-05-10T07:50:55;14.70;99.90
23291;DHT22;11814;44.686;10.842;2023-05-10T07:53:20;14.70;99.90
23291;DHT22;11814;44.686;10.842;2023-05-10T07:55:54;14.60;99.90
23291;DHT22;11814;44.686;10.842;2023-05-10T07:58:23;14.70;99.90
23291;DHT22;11814;44.686;10.842;2023-05-10T08:00:49;14.70;99.90
23291;DHT22;11814;44.686;10.842;2023-05-10T08:03:15;14.70;99.90
23291;DHT22;11814;44.686;10.842;2023-05-10T08:05:41;14.70;99.90
23291;DHT22;11814;44.686;10.842;2023-05-10T08:08:07;14.70;99.90
23291;DHT22;11814;44.686;10.842;2023-05-10T08:10:33;14.70;99.90
23291;DHT22;11814;44.686;10.842;2023-05-10T08:12:58;14.60;99.90
23291;DHT22;11814;44.686;10.842;2023-05-10T08:15:24;14.60;99.90
23291;DHT22;11814;44.686;10.842;2023-05-10T08:17:53;14.50;99.90
23291;DHT22;11814;44.686;10.842;2023-05-10T08:20:20;14.60;99.90
23291;DHT22;11814;44.686;10.842;2023-05-10T08:22:46;14.60;99.90
23291;DHT22;11814;44.686;10.842;2023-05-10T08:25:12;14.60;99.90
23291;DHT22;11814;44.686;10.842;2023-05-10T08:27:37;14.50;99.90
23291;DHT22;11814;44.686;10.842;2023-05-10T08:30:03;14.50;99.90
23291;DHT22;11814;44.686;10.842;2023-05-10T08:32:29;14.50;99.90
23291;DHT22;11814;44.686;10.842;2023-05-10T08:34:55;14.50;99.90
23291;DHT22;11814;44.686;10.842;2023-05-10T08:37:23;14.40;99.90
23291;DHT22;11814;44.686;10.842;2023-05-10T08:39:49;14.40;99.90
23291;DHT22;11814;44.686;10.842;2023-05-10T08:42:19;14.40;99.90
23291;DHT22;11814;44.686;10.842;2023-05-10T08:44:48;14.40;99.90
23291;DHT22;11814;44.686;10.842;2023-05-10T08:47:16;14.40;99.90
23291;DHT22;11814;44.686;10.842;2023-05-10T08:49:44;14.50;99.90
23291;DHT22;11814;44.686;10.842;2023-05-10T08:52:14;14.50;99.90
23291;DHT22;11814;44.686;10.842;2023-05-10T08:54:41;14.50;99.90
23291;DHT22;11814;44.686;10.842;2023-05-10T08:57:07;14.50;99.90
23291;DHT22;11814;44.686;10.842;2023-05-10T08:59:33;14.40;99.90
23291;DHT22;11814;44.686;10.842;2023-05-10T09:01:59;14.50;99.90
23291;DHT22;11814;44.686;10.842;2023-05-10T09:04:25;14.50;99.90
23291;DHT22;11814;44.686;10.842;2023-05-10T09:06:51;14.50;99.90
23291;DHT22;11814;44.686;10.842;2023-05-10T09:09:18;14.40;99.90
23291;DHT22;11814;44.686;10.842;2023-05-10T09:11:45;14.40;99.90
23291;DHT22;11814;44.686;10.842;2023-05-10T09:14:12;14.40;99.90
23291;DHT22;11814;44.686;10.842;2023-05-10T09:16:39;14.30;99.90
23291;DHT22;11814;44.686;10.842;2023-05-10T09:19:05;14.30;99.90
23291;DHT22;11814;44.686;10.842;2023-05-10T09:21:32;14.30;99.90
23291;DHT22;11814;44.686;10.842;2023-05-10T09:24:03;14.30;99.90
23291;DHT22;11814;44.686;10.842;2023-05-10T09:26:29;14.30;99.90
23291;DHT22;11814;44.686;10.842;2023-05-10T09:28:56;14.30;99.90
23291;DHT22;11814;44.686;10.842;2023-05-10T09:31:22;14.20;99.90
23291;DHT22;11814;44.686;10.842;2023-05-10T09:33:50;14.20;99.90
23291;DHT22;11814;44.686;10.842;2023-05-10T09:36:17;14.20;99.90
23291;DHT22;11814;44.686;10.842;2023-05-10T09:38:50;14.20;99.90
23291;DHT22;11814;44.686;10.842;2023-05-10T09:41:23;14.20;99.90
23291;DHT22;11814;44.686;10.842;2023-05-10T09:43:49;14.30;99.90
23291;DHT22;11814;44.686;10.842;2023-05-10T09:46:16;14.20;99.90
23291;DHT22;11814;44.686;10.842;2023-05-10T09:48:48;14.30;99.90
23291;DHT22;11814;44.686;10.842;2023-05-10T09:51:25;14.20;99.90
23291;DHT22;11814;44.686;10.842;2023-05-10T09:54:12;14.30;99.90
23291;DHT22;11814;44.686;10.842;2023-05-10T09:56:38;14.30;99.90
23291;DHT22;11814;44.686;10.842;2023-05-10T09:59:09;14.30;99.90
23291;DHT22;11814;44.686;10.842;2023-05-10T10:01:35;14.30;99.90
23291;DHT22;11814;44.686;10.842;2023-05-10T10:04:05;14.20;99.90
23291;DHT22;11814;44.686;10.842;2023-05-10T10:06:39;14.30;99.90
23291;DHT22;11814;44.686;10.842;2023-05-10T10:09:05;14.30;99.90
23291;DHT22;11814;44.686;10.842;2023-05-10T10:11:33;14.30;99.90
23291;DHT22;11814;44.686;10.842;2023-05-10T10:13:59;14.20;99.90
23291;DHT22;11814;44.686;10.842;2023-05-10T10:16:30;14.30;99.90
23291;DHT22;11814;44.686;10.842;2023-05-10T10:18:56;14.30;99.90
23291;DHT22;11814;44.686;10.842;2023-05-10T10:21:22;14.30;99.90
23291;DHT22;11814;44.686;10.842;2023-05-10T10:23:49;14.20;99.90
23291;DHT22;11814;44.686;10.842;2023-05-10T10:26:17;14.20;99.90
23291;DHT22;11814;44.686;10.842;2023-05-10T10:31:39;14.20;99.90
23291;DHT22;11814;44.686;10.842;2023-05-10T10:34:10;14.20;99.90
23291;DHT22;11814;44.686;10.842;2023-05-10T10:36:47;14.30;99.90
23291;DHT22;11814;44.686;10.842;2023-05-10T10:39:14;14.30;99.90
23291;DHT22;11814;44.686;10.842;2023-05-10T10:41:51;14.30;99.90
23291;DHT22;11814;44.686;10.842;2023-05-10T10:49:29;14.20;99.90
23291;DHT22;11814;44.686;10.842;2023-05-10T10:52:36;14.20;99.90
23291;DHT22;11814;44.686;10.842;2023-05-10T10:55:11;14.30;99.90
23291;DHT22;11814;44.686;10.842;2023-05-10T11:00:26;14.30;99.90
23291;DHT22;11814;44.686;10.842;2023-05-10T11:03:18;14.30;99.90
23291;DHT22;11814;44.686;10.842;2023-05-10T11:05:47;14.40;99.90
23291;DHT22;11814;44.686;10.842;2023-05-10T11:08:26;14.40;99.90
23291;DHT22;11814;44.686;10.842;2023-05-10T11:13:44;14.40;99.90
23291;DHT22;11814;44.686;10.842;2023-05-10T11:16:24;14.40;99.90
23291;DHT22;11814;44.686;10.842;2023-05-10T11:19:12;14.50;99.90
23291;DHT22;11814;44.686;10.842;2023-05-10T11:21:47;14.50;99.90
23291;DHT22;11814;44.686;10.842;2023-05-10T11:24:18;14.50;99.90
23291;DHT22;11814;44.686;10.842;2023-05-10T11:26:45;14.50;99.90
23291;DHT22;11814;44.686;10.842;2023-05-10T11:29:12;14.50;99.90
23291;DHT22;11814;44.686;10.842;2023-05-10T11:31:45;14.50;99.90
23291;DHT22;11814;44.686;10.842;2023-05-10T11:34:22;14.60;99.90
23291;DHT22;11814;44.686;10.842;2023-05-10T11:36:51;14.60;99.90
23291;DHT22;11814;44.686;10.842;2023-05-10T11:39:19;14.60;99.90
23291;DHT22;11814;44.686;10.842;2023-05-10T11:41:48;14.60;99.90
23291;DHT22;11814;44.686;10.842;2023-05-10T11:44:14;14.60;99.90
23291;DHT22;11814;44.686;10.842;2023-05-10T11:46:40;14.60;99.90
23291;DHT22;11814;44.686;10.842;2023-05-10T11:49:07;14.60;99.90
23291;DHT22;11814;44.686;10.842;2023-05-10T11:51:36;14.60;99.90
23291;DHT22;11814;44.686;10.842;2023-05-10T11:54:09;14.50;99.90
23291;DHT22;11814;44.686;10.842;2023-05-10T11:56:39;14.50;99.90
23291;DHT22;11814;44.686;10.842;2023-05-10T11:59:05;14.50;99.90
23291;DHT22;11814;44.686;10.842;2023-05-10T12:01:32;14.40;99.90
23291;DHT22;11814;44.686;10.842;2023-05-10T12:03:58;14.50;99.90
23291;DHT22;11814;44.686;10.842;2023-05-10T12:06:32;14.50;99.90
23291;DHT22;11814;44.686;10.842;2023-05-10T12:09:06;14.60;99.90
23291;DHT22;11814;44.686;10.842;2023-05-10T12:11:37;14.60;99.90
23291;DHT22;11814;44.686;10.842;2023-05-10T12:14:04;14.60;99.90
23291;DHT22;11814;44.686;10.842;2023-05-10T12:16:30;14.60;99.90
23291;DHT22;11814;44.686;10.842;2023-05-10T12:18:58;14.60;99.90
23291;DHT22;11814;44.686;10.842;2023-05-10T12:21:25;14.60;99.90
23291;DHT22;11814;44.686;10.842;2023-05-10T12:23:53;14.70;99.90
23291;DHT22;11814;44.686;10.842;2023-05-10T12:26:22;14.70;99.90
23291;DHT22;11814;44.686;10.842;2023-05-10T12:28:48;14.80;99.90
23291;DHT22;11814;44.686;10.842;2023-05-10T12:31:14;14.80;99.90
23291;DHT22;11814;44.686;10.842;2023-05-10T12:33:42;14.80;99.90
23291;DHT22;11814;44.686;10.842;2023-05-10T12:36:12;14.80;99.90
23291;DHT22;11814;44.686;10.842;2023-05-10T12:38:41;14.80;99.90
23291;DHT22;11814;44.686;10.842;2023-05-10T12:41:14;14.80;99.90
23291;DHT22;11814;44.686;10.842;2023-05-10T12:43:40;14.80;99.90
23291;DHT22;11814;44.686;10.842;2023-05-10T12:46:13;14.80;99.90
23291;DHT22;11814;44.686;10.842;2023-05-10T12:48:40;14.80;99.90
23291;DHT22;11814;44.686;10.842;2023-05-10T12:51:07;14.80;99.90
23291;DHT22;11814;44.686;10.842;2023-05-10T12:53:39;14.80;99.90
23291;DHT22;11814;44.686;10.842;2023-05-10T12:56:05;14.80;99.90
23291;DHT22;11814;44.686;10.842;2023-05-10T12:58:31;14.90;99.90
23291;DHT22;11814;44.686;10.842;2023-05-10T13:00:58;14.90;99.90
23291;DHT22;11814;44.686;10.842;2023-05-10T13:03:24;14.90;99.90
23291;DHT22;11814;44.686;10.842;2023-05-10T13:05:50;14.90;99.90
23291;DHT22;11814;44.686;10.842;2023-05-10T13:08:15;14.80;99.90
23291;DHT22;11814;44.686;10.842;2023-05-10T13:10:41;14.80;99.90
23291;DHT22;11814;44.686;10.842;2023-05-10T13:13:07;14.80;99.90
23291;DHT22;11814;44.686;10.842;2023-05-10T13:15:34;14.90;99.90
23291;DHT22;11814;44.686;10.842;2023-05-10T13:18:00;14.80;99.90
23291;DHT22;11814;44.686;10.842;2023-05-10T13:20:26;14.80;99.90
23291;DHT22;11814;44.686;10.842;2023-05-10T13:22:52;14.80;99.90
23291;DHT22;11814;44.686;10.842;2023-05-10T13:25:18;14.80;99.90
23291;DHT22;11814;44.686;10.842;2023-05-10T13:27:44;14.80;99.90
23291;DHT22;11814;44.686;10.842;2023-05-10T13:30:10;14.80;99.90
23291;DHT22;11814;44.686;10.842;2023-05-10T13:32:37;14.90;99.90
23291;DHT22;11814;44.686;10.842;2023-05-10T13:35:03;14.90;99.90
23291;DHT22;11814;44.686;10.842;2023-05-10T13:37:30;14.90;99.90
23291;DHT22;11814;44.686;10.842;2023-05-10T13:39:56;14.90;99.90
23291;DHT22;11814;44.686;10.842;2023-05-10T13:42:22;14.80;99.90
23291;DHT22;11814;44.686;10.842;2023-05-10T13:44:49;14.80;99.90
23291;DHT22;11814;44.686;10.842;2023-05-10T13:47:15;14.80;99.90
23291;DHT22;11814;44.686;10.842;2023-05-10T13:49:41;14.80;99.90
23291;DHT22;11814;44.686;10.842;2023-05-10T13:52:07;14.80;99.90
23291;DHT22;11814;44.686;10.842;2023-05-10T13:54:36;14.90;99.90
23291;DHT22;11814;44.686;10.842;2023-05-10T13:57:03;14.80;99.90
23291;DHT22;11814;44.686;10.842;2023-05-10T13:59:30;14.90;99.90
23291;DHT22;11814;44.686;10.842;2023-05-10T14:01:59;14.90;99.90
23291;DHT22;11814;44.686;10.842;2023-05-10T14:04:28;14.90;99.90
23291;DHT22;11814;44.686;10.842;2023-05-10T14:06:53;14.90;99.90
23291;DHT22;11814;44.686;10.842;2023-05-10T14:09:19;14.80;99.90
23291;DHT22;11814;44.686;10.842;2023-05-10T14:11:45;14.80;99.90
23291;DHT22;11814;44.686;10.842;2023-05-10T14:14:11;14.80;99.90
23291;DHT22;11814;44.686;10.842;2023-05-10T14:16:38;14.80;99.90
23291;DHT22;11814;44.686;10.842;2023-05-10T14:19:03;14.80;99.90
23291;DHT22;11814;44.686;10.842;2023-05-10T14:21:29;14.80;99.90
23291;DHT22;11814;44.686;10.842;2023-05-10T14:23:56;14.80;99.90
23291;DHT22;11814;44.686;10.842;2023-05-10T14:26:22;14.80;99.90
23291;DHT22;11814;44.686;10.842;2023-05-10T14:28:48;14.80;99.90
23291;DHT22;11814;44.686;10.842;2023-05-10T14:31:14;14.80;99.90
23291;DHT22;11814;44.686;10.842;2023-05-10T14:33:42;14.70;99.90
23291;DHT22;11814;44.686;10.842;2023-05-10T14:36:08;14.70;99.90
23291;DHT22;11814;44.686;10.842;2023-05-10T14:38:34;14.70;99.90
23291;DHT22;11814;44.686;10.842;2023-05-10T14:41:00;14.70;99.90
23291;DHT22;11814;44.686;10.842;2023-05-10T14:43:26;14.70;99.90
23291;DHT22;11814;44.686;10.842;2023-05-10T14:45:52;14.70;99.90
23291;DHT22;11814;44.686;10.842;2023-05-10T14:48:18;14.70;99.90
23291;DHT22;11814;44.686;10.842;2023-05-10T14:50:45;14.70;99.90
23291;DHT22;11814;44.686;10.842;2023-05-10T14:53:11;14.70;99.90
23291;DHT22;11814;44.686;10.842;2023-05-10T14:55:37;14.70;99.90
23291;DHT22;11814;44.686;10.842;2023-05-10T14:58:03;14.70;99.90
23291;DHT22;11814;44.686;10.842;2023-05-10T15:00:29;14.70;99.90
23291;DHT22;11814;44.686;10.842;2023-05-10T15:02:55;14.70;99.90
23291;DHT22;11814;44.686;10.842;2023-05-10T15:05:21;14.70;99.90
23291;DHT22;11814;44.686;10.842;2023-05-10T15:07:47;14.70;99.90
23291;DHT22;11814;44.686;10.842;2023-05-10T15:10:14;14.80;99.90
23291;DHT22;11814;44.686;10.842;2023-05-10T15:12:40;14.80;99.90
23291;DHT22;11814;44.686;10.842;2023-05-10T15:15:06;14.80;99.90
23291;DHT22;11814;44.686;10.842;2023-05-10T15:17:32;14.80;99.90
23291;DHT22;11814;44.686;10.842;2023-05-10T15:19:58;14.80;99.90
23291;DHT22;11814;44.686;10.842;2023-05-10T15:22:24;14.90;99.90
23291;DHT22;11814;44.686;10.842;2023-05-10T15:24:49;14.90;99.90
23291;DHT22;11814;44.686;10.842;2023-05-10T15:27:15;14.90;99.90
23291;DHT22;11814;44.686;10.842;2023-05-10T15:29:41;15.00;99.90
23291;DHT22;11814;44.686;10.842;2023-05-10T15:32:07;14.90;99.90
23291;DHT22;11814;44.686;10.842;2023-05-10T15:34:33;15.00;99.90
23291;DHT22;11814;44.686;10.842;2023-05-10T15:36:58;15.00;99.90
23291;DHT22;11814;44.686;10.842;2023-05-10T15:39:24;15.00;99.90
23291;DHT22;11814;44.686;10.842;2023-05-10T15:41:51;15.00;99.90
23291;DHT22;11814;44.686;10.842;2023-05-10T15:44:17;15.00;99.90
23291;DHT22;11814;44.686;10.842;2023-05-10T15:46:44;15.00;99.90
23291;DHT22;11814;44.686;10.842;2023-05-10T15:49:09;15.00;99.90
23291;DHT22;11814;44.686;10.842;2023-05-10T15:51:35;15.00;99.90